sensor_id;sensor_type;location;lat;lon;timestamp;P1;durP1;ratioP1;P2;durP2;ratioP2
41952;SDS011;63613;28.200;112.870;2023-11-21T00:00:57;19.20;;;13.13;;
41952;SDS011;63613;28.200;112.870;2023-11-21T00:03:24;24.67;;;15.35;;
41952;SDS011;63613;28.200;112.870;2023-11-21T00:05:53;28.40;;;18.17;;
41952;SDS011;63613;28.200;112.870;2023-11-21T00:08:20;21.85;;;15.93;;
41952;SDS011;63613;28.200;112.870;2023-11-21T00:10:47;27.02;;;17.30;;
41952;SDS011;63613;28.200;112.870;2023-11-21T00:13:14;34.78;;;23.63;;
41952;SDS011;63613;28.200;112.870;2023-11-21T00:15:41;41.95;;;25.50;;
41952;SDS011;63613;28.200;112.870;2023-11-21T00:18:08;37.58;;;24.08;;
41952;SDS011;63613;28.200;112.870;2023-11-21T00:20:35;32.80;;;23.88;;
41952;SDS011;63613;28.200;112.870;2023-11-21T00:23:09;34.28;;;21.13;;
41952;SDS011;63613;28.200;112.870;2023-11-21T00:25:36;34.63;;;23.05;;
41952;SDS011;63613;28.200;112.870;2023-11-21T00:28:03;39.80;;;23.88;;
41952;SDS011;63613;28.200;112.870;2023-11-21T00:30:34;40.65;;;23.90;;
41952;SDS011;63613;28.200;112.870;2023-11-21T00:33:00;41.08;;;26.00;;
41952;SDS011;63613;28.200;112.870;2023-11-21T00:35:27;39.10;;;26.40;;
41952;SDS011;63613;28.200;112.870;2023-11-21T00:37:54;41.20;;;25.55;;
41952;SDS011;63613;28.200;112.870;2023-11-21T00:40:23;40.45;;;24.10;;
41952;SDS011;63613;28.200;112.870;2023-11-21T00:42:50;38.00;;;22.42;;
41952;SDS011;63613;28.200;112.870;2023-11-21T00:45:17;37.05;;;22.50;;
41952;SDS011;63613;28.200;112.870;2023-11-21T00:47:44;36.85;;;22.77;;
41952;SDS011;63613;28.200;112.870;2023-11-21T00:50:10;33.47;;;21.42;;
41952;SDS011;63613;28.200;112.870;2023-11-21T00:52:37;33.58;;;21.33;;
41952;SDS011;63613;28.200;112.870;2023-11-21T00:55:04;32.08;;;21.52;;
41952;SDS011;63613;28.200;112.870;2023-11-21T00:57:33;35.55;;;21.95;;
41952;SDS011;63613;28.200;112.870;2023-11-21T01:00:00;32.03;;;20.73;;
41952;SDS011;63613;28.200;112.870;2023-11-21T01:02:32;36.00;;;21.50;;
41952;SDS011;63613;28.200;112.870;2023-11-21T01:05:01;34.08;;;22.10;;
41952;SDS011;63613;28.200;112.870;2023-11-21T01:07:47;32.53;;;20.00;;
41952;SDS011;63613;28.200;112.870;2023-11-21T01:10:14;31.25;;;18.55;;
41952;SDS011;63613;28.200;112.870;2023-11-21T01:12:42;32.92;;;19.95;;
41952;SDS011;63613;28.200;112.870;2023-11-21T01:15:09;36.90;;;21.00;;
41952;SDS011;63613;28.200;112.870;2023-11-21T01:17:37;28.77;;;19.33;;
41952;SDS011;63613;28.200;112.870;2023-11-21T01:20:05;35.92;;;21.55;;
41952;SDS011;63613;28.200;112.870;2023-11-21T01:22:38;30.25;;;19.00;;
41952;SDS011;63613;28.200;112.870;2023-11-21T01:25:06;33.75;;;20.15;;
41952;SDS011;63613;28.200;112.870;2023-11-21T01:27:36;29.10;;;19.30;;
41952;SDS011;63613;28.200;112.870;2023-11-21T01:30:03;33.67;;;19.15;;
41952;SDS011;63613;28.200;112.870;2023-11-21T01:32:33;30.70;;;19.17;;
41952;SDS011;63613;28.200;112.870;2023-11-21T01:34:59;27.98;;;17.05;;
41952;SDS011;63613;28.200;112.870;2023-11-21T01:37:26;29.98;;;19.48;;
41952;SDS011;63613;28.200;112.870;2023-11-21T01:39:56;32.35;;;18.27;;
41952;SDS011;63613;28.200;112.870;2023-11-21T01:42:22;27.05;;;16.95;;
41952;SDS011;63613;28.200;112.870;2023-11-21T01:44:49;30.23;;;19.23;;
41952;SDS011;63613;28.200;112.870;2023-11-21T01:47:20;32.42;;;17.30;;
41952;SDS011;63613;28.200;112.870;2023-11-21T01:49:47;29.85;;;17.65;;
41952;SDS011;63613;28.200;112.870;2023-11-21T01:52:14;28.52;;;17.50;;
41952;SDS011;63613;28.200;112.870;2023-11-21T01:54:41;29.27;;;17.75;;
41952;SDS011;63613;28.200;112.870;2023-11-21T01:57:08;25.88;;;16.63;;
41952;SDS011;63613;28.200;112.870;2023-11-21T01:59:36;28.42;;;16.98;;
41952;SDS011;63613;28.200;112.870;2023-11-21T02:02:07;27.17;;;16.67;;
41952;SDS011;63613;28.200;112.870;2023-11-21T02:04:35;27.23;;;16.48;;
41952;SDS011;63613;28.200;112.870;2023-11-21T02:07:02;27.25;;;16.63;;
41952;SDS011;63613;28.200;112.870;2023-11-21T02:09:32;28.90;;;16.08;;
41952;SDS011;63613;28.200;112.870;2023-11-21T02:12:19;30.63;;;15.48;;
41952;SDS011;63613;28.200;112.870;2023-11-21T02:14:45;25.50;;;15.18;;
41952;SDS011;63613;28.200;112.870;2023-11-21T02:17:14;26.88;;;16.00;;
41952;SDS011;63613;28.200;112.870;2023-11-21T02:19:41;29.17;;;16.95;;
41952;SDS011;63613;28.200;112.870;2023-11-21T02:22:07;34.17;;;19.30;;
41952;SDS011;63613;28.200;112.870;2023-11-21T02:24:36;29.23;;;18.30;;
41952;SDS011;63613;28.200;112.870;2023-11-21T02:27:03;37.55;;;19.13;;
41952;SDS011;63613;28.200;112.870;2023-11-21T02:29:32;29.60;;;18.48;;
41952;SDS011;63613;28.200;112.870;2023-11-21T02:31:59;32.65;;;18.17;;
41952;SDS011;63613;28.200;112.870;2023-11-21T02:34:26;30.92;;;17.35;;
41952;SDS011;63613;28.200;112.870;2023-11-21T02:36:52;30.35;;;16.02;;
41952;SDS011;63613;28.200;112.870;2023-11-21T02:39:19;24.48;;;14.65;;
41952;SDS011;63613;28.200;112.870;2023-11-21T02:41:49;23.27;;;14.70;;
41952;SDS011;63613;28.200;112.870;2023-11-21T02:44:16;26.13;;;15.48;;
41952;SDS011;63613;28.200;112.870;2023-11-21T02:46:43;28.83;;;16.67;;
41952;SDS011;63613;28.200;112.870;2023-11-21T02:49:10;27.02;;;17.17;;
41952;SDS011;63613;28.200;112.870;2023-11-21T02:51:37;22.92;;;15.15;;
41952;SDS011;63613;28.200;112.870;2023-11-21T02:54:05;22.90;;;14.18;;
41952;SDS011;63613;28.200;112.870;2023-11-21T02:56:33;27.25;;;15.27;;
41952;SDS011;63613;28.200;112.870;2023-11-21T02:59:00;21.00;;;14.20;;
41952;SDS011;63613;28.200;112.870;2023-11-21T03:01:27;32.88;;;18.58;;
41952;SDS011;63613;28.200;112.870;2023-11-21T03:03:54;27.55;;;16.30;;
41952;SDS011;63613;28.200;112.870;2023-11-21T03:06:23;24.15;;;14.27;;
41952;SDS011;63613;28.200;112.870;2023-11-21T03:08:50;28.58;;;16.98;;
41952;SDS011;63613;28.200;112.870;2023-11-21T03:11:16;25.38;;;15.43;;
41952;SDS011;63613;28.200;112.870;2023-11-21T03:13:43;32.80;;;17.77;;
41952;SDS011;63613;28.200;112.870;2023-11-21T03:16:13;27.33;;;17.23;;
41952;SDS011;63613;28.200;112.870;2023-11-21T03:18:49;31.63;;;18.90;;
41952;SDS011;63613;28.200;112.870;2023-11-21T03:21:17;32.20;;;17.70;;
41952;SDS011;63613;28.200;112.870;2023-11-21T03:23:44;32.72;;;18.30;;
41952;SDS011;63613;28.200;112.870;2023-11-21T03:26:14;31.10;;;15.23;;
41952;SDS011;63613;28.200;112.870;2023-11-21T03:28:41;32.63;;;18.95;;
41952;SDS011;63613;28.200;112.870;2023-11-21T03:31:08;29.52;;;16.00;;
41952;SDS011;63613;28.200;112.870;2023-11-21T03:33:36;41.85;;;26.63;;
41952;SDS011;63613;28.200;112.870;2023-11-21T03:36:02;36.25;;;22.95;;
41952;SDS011;63613;28.200;112.870;2023-11-21T03:38:29;31.33;;;20.52;;
41952;SDS011;63613;28.200;112.870;2023-11-21T03:40:56;30.85;;;20.95;;
41952;SDS011;63613;28.200;112.870;2023-11-21T03:43:23;31.45;;;19.80;;
41952;SDS011;63613;28.200;112.870;2023-11-21T03:45:51;30.42;;;18.25;;
41952;SDS011;63613;28.200;112.870;2023-11-21T03:48:38;38.90;;;19.92;;
41952;SDS011;63613;28.200;112.870;2023-11-21T03:51:05;34.30;;;18.83;;
41952;SDS011;63613;28.200;112.870;2023-11-21T03:53:32;38.15;;;19.83;;
41952;SDS011;63613;28.200;112.870;2023-11-21T03:56:02;28.67;;;18.13;;
41952;SDS011;63613;28.200;112.870;2023-11-21T03:58:29;29.58;;;17.75;;
41952;SDS011;63613;28.200;112.870;2023-11-21T04:00:56;30.55;;;16.80;;
41952;SDS011;63613;28.200;112.870;2023-11-21T04:03:23;25.80;;;15.50;;
41952;SDS011;63613;28.200;112.870;2023-11-21T04:05:49;30.35;;;18.40;;
41952;SDS011;63613;28.200;112.870;2023-11-21T04:08:16;34.08;;;19.10;;
41952;SDS011;63613;28.200;112.870;2023-11-21T04:10:43;34.15;;;20.52;;
41952;SDS011;63613;28.200;112.870;2023-11-21T04:13:10;33.92;;;19.25;;
41952;SDS011;63613;28.200;112.870;2023-11-21T04:15:36;33.08;;;18.52;;
41952;SDS011;63613;28.200;112.870;2023-11-21T04:18:03;31.85;;;16.98;;
41952;SDS011;63613;28.200;112.870;2023-11-21T04:20:33;33.35;;;19.17;;
41952;SDS011;63613;28.200;112.870;2023-11-21T04:23:00;34.35;;;19.98;;
41952;SDS011;63613;28.200;112.870;2023-11-21T04:25:27;33.00;;;19.38;;
41952;SDS011;63613;28.200;112.870;2023-11-21T04:27:54;31.90;;;18.63;;
41952;SDS011;63613;28.200;112.870;2023-11-21T04:30:22;34.28;;;17.92;;
41952;SDS011;63613;28.200;112.870;2023-11-21T04:32:49;35.08;;;18.92;;
41952;SDS011;63613;28.200;112.870;2023-11-21T04:35:16;32.85;;;18.60;;
41952;SDS011;63613;28.200;112.870;2023-11-21T04:37:43;28.85;;;17.58;;
41952;SDS011;63613;28.200;112.870;2023-11-21T04:40:10;29.48;;;17.48;;
41952;SDS011;63613;28.200;112.870;2023-11-21T04:42:41;42.90;;;22.40;;
41952;SDS011;63613;28.200;112.870;2023-11-21T04:45:09;53.38;;;27.17;;
41952;SDS011;63613;28.200;112.870;2023-11-21T04:47:37;39.00;;;22.20;;
41952;SDS011;63613;28.200;112.870;2023-11-21T04:50:04;45.17;;;22.48;;
41952;SDS011;63613;28.200;112.870;2023-11-21T04:52:31;48.50;;;22.30;;
41952;SDS011;63613;28.200;112.870;2023-11-21T04:54:58;33.85;;;19.45;;
41952;SDS011;63613;28.200;112.870;2023-11-21T04:57:27;31.75;;;18.02;;
41952;SDS011;63613;28.200;112.870;2023-11-21T04:59:57;34.22;;;18.00;;
41952;SDS011;63613;28.200;112.870;2023-11-21T05:02:24;35.00;;;17.20;;
41952;SDS011;63613;28.200;112.870;2023-11-21T05:04:51;25.42;;;14.90;;
41952;SDS011;63613;28.200;112.870;2023-11-21T05:07:23;32.03;;;18.15;;
41952;SDS011;63613;28.200;112.870;2023-11-21T05:09:54;26.60;;;15.15;;
41952;SDS011;63613;28.200;112.870;2023-11-21T05:12:24;27.35;;;15.18;;
41952;SDS011;63613;28.200;112.870;2023-11-21T05:14:52;26.60;;;16.00;;
41952;SDS011;63613;28.200;112.870;2023-11-21T05:17:21;31.60;;;17.83;;
41952;SDS011;63613;28.200;112.870;2023-11-21T05:19:51;26.20;;;19.23;;
41952;SDS011;63613;28.200;112.870;2023-11-21T05:22:38;34.38;;;23.55;;
41952;SDS011;63613;28.200;112.870;2023-11-21T05:25:05;28.05;;;18.40;;
41952;SDS011;63613;28.200;112.870;2023-11-21T05:27:36;30.38;;;18.95;;
41952;SDS011;63613;28.200;112.870;2023-11-21T05:30:04;29.13;;;18.15;;
41952;SDS011;63613;28.200;112.870;2023-11-21T05:32:32;30.20;;;16.77;;
41952;SDS011;63613;28.200;112.870;2023-11-21T05:34:59;22.67;;;15.05;;
41952;SDS011;63613;28.200;112.870;2023-11-21T05:37:26;26.23;;;15.75;;
41952;SDS011;63613;28.200;112.870;2023-11-21T05:39:55;25.90;;;15.63;;
41952;SDS011;63613;28.200;112.870;2023-11-21T05:42:23;21.63;;;15.80;;
41952;SDS011;63613;28.200;112.870;2023-11-21T05:44:50;23.42;;;15.23;;
41952;SDS011;63613;28.200;112.870;2023-11-21T05:47:20;21.95;;;14.82;;
41952;SDS011;63613;28.200;112.870;2023-11-21T05:49:47;23.10;;;14.02;;
41952;SDS011;63613;28.200;112.870;2023-11-21T05:52:16;29.17;;;15.57;;
41952;SDS011;63613;28.200;112.870;2023-11-21T05:54:43;23.50;;;14.25;;
41952;SDS011;63613;28.200;112.870;2023-11-21T05:57:09;25.38;;;15.55;;
41952;SDS011;63613;28.200;112.870;2023-11-21T05:59:37;22.23;;;15.27;;
41952;SDS011;63613;28.200;112.870;2023-11-21T06:02:03;24.33;;;13.90;;
41952;SDS011;63613;28.200;112.870;2023-11-21T06:04:30;24.02;;;15.50;;
41952;SDS011;63613;28.200;112.870;2023-11-21T06:06:57;23.40;;;14.48;;
41952;SDS011;63613;28.200;112.870;2023-11-21T06:09:24;29.20;;;15.63;;
41952;SDS011;63613;28.200;112.870;2023-11-21T06:11:51;23.48;;;14.23;;
41952;SDS011;63613;28.200;112.870;2023-11-21T06:14:17;22.60;;;14.48;;
41952;SDS011;63613;28.200;112.870;2023-11-21T06:16:44;21.70;;;13.05;;
41952;SDS011;63613;28.200;112.870;2023-11-21T06:19:12;24.25;;;13.27;;
41952;SDS011;63613;28.200;112.870;2023-11-21T06:21:45;20.17;;;13.23;;
41952;SDS011;63613;28.200;112.870;2023-11-21T06:24:12;20.75;;;12.77;;
41952;SDS011;63613;28.200;112.870;2023-11-21T06:26:40;21.40;;;13.32;;
41952;SDS011;63613;28.200;112.870;2023-11-21T06:29:07;24.08;;;13.40;;
41952;SDS011;63613;28.200;112.870;2023-11-21T06:31:34;20.77;;;12.43;;
41952;SDS011;63613;28.200;112.870;2023-11-21T06:34:01;26.98;;;14.13;;
41952;SDS011;63613;28.200;112.870;2023-11-21T06:36:48;21.73;;;12.98;;
41952;SDS011;63613;28.200;112.870;2023-11-21T06:39:15;18.98;;;12.55;;
41952;SDS011;63613;28.200;112.870;2023-11-21T06:41:44;18.75;;;12.73;;
41952;SDS011;63613;28.200;112.870;2023-11-21T06:44:11;18.83;;;12.10;;
41952;SDS011;63613;28.200;112.870;2023-11-21T06:47:04;20.23;;;12.57;;
41952;SDS011;63613;28.200;112.870;2023-11-21T06:49:31;19.98;;;13.45;;
41952;SDS011;63613;28.200;112.870;2023-11-21T06:52:18;22.05;;;13.48;;
41952;SDS011;63613;28.200;112.870;2023-11-21T06:54:46;20.67;;;12.77;;
41952;SDS011;63613;28.200;112.870;2023-11-21T06:57:17;22.45;;;12.50;;
41952;SDS011;63613;28.200;112.870;2023-11-21T06:59:44;23.00;;;12.80;;
41952;SDS011;63613;28.200;112.870;2023-11-21T07:02:11;16.52;;;12.65;;
41952;SDS011;63613;28.200;112.870;2023-11-21T07:04:37;18.30;;;13.25;;
41952;SDS011;63613;28.200;112.870;2023-11-21T07:07:04;23.45;;;13.82;;
41952;SDS011;63613;28.200;112.870;2023-11-21T07:09:32;24.92;;;13.80;;
41952;SDS011;63613;28.200;112.870;2023-11-21T07:11:59;18.75;;;12.55;;
41952;SDS011;63613;28.200;112.870;2023-11-21T07:14:29;19.52;;;12.65;;
41952;SDS011;63613;28.200;112.870;2023-11-21T07:16:57;19.73;;;12.90;;
41952;SDS011;63613;28.200;112.870;2023-11-21T07:19:25;23.00;;;12.40;;
41952;SDS011;63613;28.200;112.870;2023-11-21T07:21:52;23.73;;;13.57;;
41952;SDS011;63613;28.200;112.870;2023-11-21T07:24:42;20.35;;;12.15;;
41952;SDS011;63613;28.200;112.870;2023-11-21T07:27:09;22.35;;;13.20;;
41952;SDS011;63613;28.200;112.870;2023-11-21T07:29:36;20.48;;;13.23;;
41952;SDS011;63613;28.200;112.870;2023-11-21T07:32:03;21.10;;;13.50;;
41952;SDS011;63613;28.200;112.870;2023-11-21T07:34:35;19.45;;;12.43;;
41952;SDS011;63613;28.200;112.870;2023-11-21T07:37:05;16.33;;;12.00;;
41952;SDS011;63613;28.200;112.870;2023-11-21T07:39:32;21.65;;;12.75;;
41952;SDS011;63613;28.200;112.870;2023-11-21T07:41:58;22.35;;;12.88;;
41952;SDS011;63613;28.200;112.870;2023-11-21T07:44:25;20.63;;;12.93;;
41952;SDS011;63613;28.200;112.870;2023-11-21T07:46:52;17.65;;;11.73;;
41952;SDS011;63613;28.200;112.870;2023-11-21T07:49:23;21.08;;;13.55;;
41952;SDS011;63613;28.200;112.870;2023-11-21T07:52:10;19.27;;;13.48;;
41952;SDS011;63613;28.200;112.870;2023-11-21T07:54:37;19.45;;;12.93;;
41952;SDS011;63613;28.200;112.870;2023-11-21T07:57:04;20.40;;;13.35;;
41952;SDS011;63613;28.200;112.870;2023-11-21T07:59:30;19.00;;;12.50;;
41952;SDS011;63613;28.200;112.870;2023-11-21T08:02:21;18.95;;;13.40;;
41952;SDS011;63613;28.200;112.870;2023-11-21T08:05:11;19.30;;;13.90;;
41952;SDS011;63613;28.200;112.870;2023-11-21T08:07:58;20.60;;;12.63;;
41952;SDS011;63613;28.200;112.870;2023-11-21T08:10:25;19.67;;;14.65;;
41952;SDS011;63613;28.200;112.870;2023-11-21T08:12:52;20.63;;;14.45;;
41952;SDS011;63613;28.200;112.870;2023-11-21T08:15:19;19.83;;;13.15;;
41952;SDS011;63613;28.200;112.870;2023-11-21T08:17:46;20.88;;;12.40;;
41952;SDS011;63613;28.200;112.870;2023-11-21T08:20:13;21.75;;;14.43;;
41952;SDS011;63613;28.200;112.870;2023-11-21T08:22:42;24.63;;;13.77;;
41952;SDS011;63613;28.200;112.870;2023-11-21T08:25:09;18.67;;;13.32;;
41952;SDS011;63613;28.200;112.870;2023-11-21T08:27:36;21.55;;;13.68;;
41952;SDS011;63613;28.200;112.870;2023-11-21T08:30:04;20.65;;;12.95;;
41952;SDS011;63613;28.200;112.870;2023-11-21T08:32:32;20.77;;;13.23;;
41952;SDS011;63613;28.200;112.870;2023-11-21T08:35:19;23.27;;;13.13;;
41952;SDS011;63613;28.200;112.870;2023-11-21T08:37:47;16.33;;;13.15;;
41952;SDS011;63613;28.200;112.870;2023-11-21T08:40:14;22.20;;;13.35;;
41952;SDS011;63613;28.200;112.870;2023-11-21T08:42:42;22.08;;;13.32;;
41952;SDS011;63613;28.200;112.870;2023-11-21T08:45:11;20.30;;;13.13;;
41952;SDS011;63613;28.200;112.870;2023-11-21T08:47:58;19.42;;;12.82;;
41952;SDS011;63613;28.200;112.870;2023-11-21T08:50:24;18.15;;;12.23;;
41952;SDS011;63613;28.200;112.870;2023-11-21T08:52:51;15.68;;;11.85;;
41952;SDS011;63613;28.200;112.870;2023-11-21T08:55:18;22.60;;;13.73;;
41952;SDS011;63613;28.200;112.870;2023-11-21T08:57:46;21.25;;;12.18;;
41952;SDS011;63613;28.200;112.870;2023-11-21T09:00:14;21.85;;;13.15;;
41952;SDS011;63613;28.200;112.870;2023-11-21T09:02:44;18.48;;;12.50;;
41952;SDS011;63613;28.200;112.870;2023-11-21T09:05:12;19.00;;;12.45;;
41952;SDS011;63613;28.200;112.870;2023-11-21T09:07:40;19.77;;;13.50;;
41952;SDS011;63613;28.200;112.870;2023-11-21T09:10:28;20.45;;;13.23;;
41952;SDS011;63613;28.200;112.870;2023-11-21T09:12:56;20.75;;;12.07;;
41952;SDS011;63613;28.200;112.870;2023-11-21T09:15:24;22.88;;;12.40;;
41952;SDS011;63613;28.200;112.870;2023-11-21T09:17:51;18.00;;;12.00;;
41952;SDS011;63613;28.200;112.870;2023-11-21T09:20:19;20.02;;;12.82;;
41952;SDS011;63613;28.200;112.870;2023-11-21T09:22:50;22.08;;;13.77;;
41952;SDS011;63613;28.200;112.870;2023-11-21T09:25:19;20.25;;;13.93;;
41952;SDS011;63613;28.200;112.870;2023-11-21T09:27:46;25.10;;;15.43;;
41952;SDS011;63613;28.200;112.870;2023-11-21T09:30:15;29.45;;;17.25;;
41952;SDS011;63613;28.200;112.870;2023-11-21T09:32:42;35.00;;;20.80;;
41952;SDS011;63613;28.200;112.870;2023-11-21T09:35:10;34.95;;;17.33;;
41952;SDS011;63613;28.200;112.870;2023-11-21T09:37:39;28.17;;;16.55;;
41952;SDS011;63613;28.200;112.870;2023-11-21T09:40:09;30.85;;;17.35;;
41952;SDS011;63613;28.200;112.870;2023-11-21T09:42:43;28.63;;;17.63;;
41952;SDS011;63613;28.200;112.870;2023-11-21T09:45:23;24.48;;;15.80;;
41952;SDS011;63613;28.200;112.870;2023-11-21T09:47:54;26.52;;;15.38;;
41952;SDS011;63613;28.200;112.870;2023-11-21T09:50:22;26.58;;;15.07;;
41952;SDS011;63613;28.200;112.870;2023-11-21T09:55:42;24.88;;;15.23;;
41952;SDS011;63613;28.200;112.870;2023-11-21T09:58:10;26.98;;;14.63;;
41952;SDS011;63613;28.200;112.870;2023-11-21T10:00:42;31.75;;;14.73;;
41952;SDS011;63613;28.200;112.870;2023-11-21T10:03:11;24.83;;;14.40;;
41952;SDS011;63613;28.200;112.870;2023-11-21T10:05:39;24.45;;;14.82;;
41952;SDS011;63613;28.200;112.870;2023-11-21T10:08:08;24.10;;;14.07;;
41952;SDS011;63613;28.200;112.870;2023-11-21T10:10:36;36.00;;;20.08;;
41952;SDS011;63613;28.200;112.870;2023-11-21T10:13:04;86.45;;;34.90;;
41952;SDS011;63613;28.200;112.870;2023-11-21T10:15:33;97.43;;;39.88;;
41952;SDS011;63613;28.200;112.870;2023-11-21T10:18:20;129.32;;;48.17;;
41952;SDS011;63613;28.200;112.870;2023-11-21T10:20:48;122.30;;;46.85;;
41952;SDS011;63613;28.200;112.870;2023-11-21T10:23:22;106.10;;;43.85;;
41952;SDS011;63613;28.200;112.870;2023-11-21T10:25:49;88.45;;;38.33;;
41952;SDS011;63613;28.200;112.870;2023-11-21T10:28:17;58.95;;;27.48;;
41952;SDS011;63613;28.200;112.870;2023-11-21T10:30:46;46.90;;;21.90;;
41952;SDS011;63613;28.200;112.870;2023-11-21T10:33:12;46.80;;;24.10;;
41952;SDS011;63613;28.200;112.870;2023-11-21T10:35:43;51.70;;;23.67;;
41952;SDS011;63613;28.200;112.870;2023-11-21T10:38:17;50.95;;;24.95;;
41952;SDS011;63613;28.200;112.870;2023-11-21T10:40:46;51.38;;;24.20;;
41952;SDS011;63613;28.200;112.870;2023-11-21T10:43:15;53.78;;;25.13;;
41952;SDS011;63613;28.200;112.870;2023-11-21T10:45:45;39.58;;;19.23;;
41952;SDS011;63613;28.200;112.870;2023-11-21T10:48:15;43.25;;;21.83;;
41952;SDS011;63613;28.200;112.870;2023-11-21T10:50:42;53.80;;;25.55;;
41952;SDS011;63613;28.200;112.870;2023-11-21T10:53:11;55.75;;;24.20;;
41952;SDS011;63613;28.200;112.870;2023-11-21T10:55:40;41.10;;;20.48;;
41952;SDS011;63613;28.200;112.870;2023-11-21T10:58:09;36.03;;;18.38;;
41952;SDS011;63613;28.200;112.870;2023-11-21T11:00:39;37.25;;;19.98;;
41952;SDS011;63613;28.200;112.870;2023-11-21T11:03:10;36.55;;;19.33;;
41952;SDS011;63613;28.200;112.870;2023-11-21T11:05:41;42.10;;;22.20;;
41952;SDS011;63613;28.200;112.870;2023-11-21T11:08:16;47.80;;;23.05;;
41952;SDS011;63613;28.200;112.870;2023-11-21T11:10:51;43.95;;;23.05;;
41952;SDS011;63613;28.200;112.870;2023-11-21T11:13:19;46.15;;;22.42;;
41952;SDS011;63613;28.200;112.870;2023-11-21T11:15:49;43.53;;;22.52;;
41952;SDS011;63613;28.200;112.870;2023-11-21T11:18:17;37.75;;;20.08;;
41952;SDS011;63613;28.200;112.870;2023-11-21T11:20:46;36.65;;;19.70;;
41952;SDS011;63613;28.200;112.870;2023-11-21T11:29:44;39.10;;;19.50;;
41952;SDS011;63613;28.200;112.870;2023-11-21T11:32:22;37.77;;;20.00;;
41952;SDS011;63613;28.200;112.870;2023-11-21T11:38:00;33.88;;;18.27;;
41952;SDS011;63613;28.200;112.870;2023-11-21T11:40:45;36.67;;;19.88;;
41952;SDS011;63613;28.200;112.870;2023-11-21T11:43:13;33.25;;;18.45;;
41952;SDS011;63613;28.200;112.870;2023-11-21T11:45:50;34.92;;;18.15;;
41952;SDS011;63613;28.200;112.870;2023-11-21T11:48:19;31.77;;;17.80;;
41952;SDS011;63613;28.200;112.870;2023-11-21T11:51:09;27.92;;;16.77;;
41952;SDS011;63613;28.200;112.870;2023-11-21T11:53:42;29.80;;;17.75;;
41952;SDS011;63613;28.200;112.870;2023-11-21T11:59:04;32.15;;;16.02;;
41952;SDS011;63613;28.200;112.870;2023-11-21T12:01:35;28.63;;;16.45;;
41952;SDS011;63613;28.200;112.870;2023-11-21T12:06:46;30.75;;;16.88;;
41952;SDS011;63613;28.200;112.870;2023-11-21T12:09:19;31.42;;;17.48;;
41952;SDS011;63613;28.200;112.870;2023-11-21T12:11:51;31.30;;;17.98;;
41952;SDS011;63613;28.200;112.870;2023-11-21T12:14:39;27.63;;;17.20;;
41952;SDS011;63613;28.200;112.870;2023-11-21T12:17:12;25.90;;;16.25;;
41952;SDS011;63613;28.200;112.870;2023-11-21T12:20:02;32.75;;;17.55;;
41952;SDS011;63613;28.200;112.870;2023-11-21T12:22:31;32.28;;;18.15;;
41952;SDS011;63613;28.200;112.870;2023-11-21T12:24:58;31.88;;;15.90;;
41952;SDS011;63613;28.200;112.870;2023-11-21T12:27:25;27.85;;;16.02;;
41952;SDS011;63613;28.200;112.870;2023-11-21T12:29:52;30.33;;;17.38;;
41952;SDS011;63613;28.200;112.870;2023-11-21T12:32:32;29.13;;;16.17;;
41952;SDS011;63613;28.200;112.870;2023-11-21T12:34:59;31.48;;;17.48;;
41952;SDS011;63613;28.200;112.870;2023-11-21T12:37:29;28.92;;;17.27;;
41952;SDS011;63613;28.200;112.870;2023-11-21T12:39:58;32.15;;;16.17;;
41952;SDS011;63613;28.200;112.870;2023-11-21T12:42:26;30.02;;;16.15;;
41952;SDS011;63613;28.200;112.870;2023-11-21T12:45:08;27.00;;;15.73;;
41952;SDS011;63613;28.200;112.870;2023-11-21T12:50:28;28.20;;;16.03;;
41952;SDS011;63613;28.200;112.870;2023-11-21T12:53:00;32.90;;;17.25;;
41952;SDS011;63613;28.200;112.870;2023-11-21T12:55:48;29.05;;;16.95;;
41952;SDS011;63613;28.200;112.870;2023-11-21T12:58:16;28.40;;;16.15;;
41952;SDS011;63613;28.200;112.870;2023-11-21T13:00:49;30.60;;;17.50;;
41952;SDS011;63613;28.200;112.870;2023-11-21T13:03:17;27.45;;;16.10;;
41952;SDS011;63613;28.200;112.870;2023-11-21T13:05:51;30.45;;;16.63;;
41952;SDS011;63613;28.200;112.870;2023-11-21T13:08:23;23.10;;;14.98;;
41952;SDS011;63613;28.200;112.870;2023-11-21T13:10:57;34.10;;;17.33;;
41952;SDS011;63613;28.200;112.870;2023-11-21T13:13:25;29.55;;;16.30;;
41952;SDS011;63613;28.200;112.870;2023-11-21T13:15:54;31.40;;;15.48;;
41952;SDS011;63613;28.200;112.870;2023-11-21T13:18:30;27.85;;;16.50;;
41952;SDS011;63613;28.200;112.870;2023-11-21T13:21:07;28.38;;;18.05;;
41952;SDS011;63613;28.200;112.870;2023-11-21T13:23:42;26.95;;;16.27;;
41952;SDS011;63613;28.200;112.870;2023-11-21T13:26:11;27.55;;;17.05;;
41952;SDS011;63613;28.200;112.870;2023-11-21T13:28:58;28.63;;;17.15;;
41952;SDS011;63613;28.200;112.870;2023-11-21T13:31:26;29.92;;;18.90;;
41952;SDS011;63613;28.200;112.870;2023-11-21T13:33:58;31.48;;;18.30;;
41952;SDS011;63613;28.200;112.870;2023-11-21T13:36:30;34.08;;;19.80;;
41952;SDS011;63613;28.200;112.870;2023-11-21T13:39:00;28.63;;;17.35;;
41952;SDS011;63613;28.200;112.870;2023-11-21T13:41:33;27.60;;;17.67;;
41952;SDS011;63613;28.200;112.870;2023-11-21T13:44:00;29.75;;;20.13;;
41952;SDS011;63613;28.200;112.870;2023-11-21T13:47:04;28.67;;;17.65;;
41952;SDS011;63613;28.200;112.870;2023-11-21T13:49:31;29.27;;;18.73;;
41952;SDS011;63613;28.200;112.870;2023-11-21T13:54:33;30.27;;;18.85;;
41952;SDS011;63613;28.200;112.870;2023-11-21T13:57:01;30.30;;;17.92;;
41952;SDS011;63613;28.200;112.870;2023-11-21T13:59:31;28.80;;;18.63;;
41952;SDS011;63613;28.200;112.870;2023-11-21T14:01:59;32.20;;;19.48;;
41952;SDS011;63613;28.200;112.870;2023-11-21T14:04:41;26.50;;;18.08;;
41952;SDS011;63613;28.200;112.870;2023-11-21T14:07:23;28.85;;;18.40;;
41952;SDS011;63613;28.200;112.870;2023-11-21T14:10:15;25.67;;;18.42;;
41952;SDS011;63613;28.200;112.870;2023-11-21T14:12:47;34.25;;;22.55;;
41952;SDS011;63613;28.200;112.870;2023-11-21T14:15:14;35.90;;;21.13;;
41952;SDS011;63613;28.200;112.870;2023-11-21T14:17:44;28.35;;;19.38;;
41952;SDS011;63613;28.200;112.870;2023-11-21T14:20:11;27.48;;;18.90;;
41952;SDS011;63613;28.200;112.870;2023-11-21T14:22:41;28.80;;;18.02;;
41952;SDS011;63613;28.200;112.870;2023-11-21T14:25:12;29.67;;;17.92;;
41952;SDS011;63613;28.200;112.870;2023-11-21T14:27:43;28.95;;;18.45;;
41952;SDS011;63613;28.200;112.870;2023-11-21T14:30:31;26.65;;;16.67;;
41952;SDS011;63613;28.200;112.870;2023-11-21T14:33:01;29.23;;;17.40;;
41952;SDS011;63613;28.200;112.870;2023-11-21T14:35:31;23.67;;;16.63;;